sensor_id;sensor_type;location;lat;lon;timestamp;P1;durP1;ratioP1;P2;durP2;ratioP2
33104;SDS011;19476;51.448;6.674;2023-06-10T00:01:41;6.72;;;4.38;;
33104;SDS011;19476;51.448;6.674;2023-06-10T00:04:08;8.45;;;5.18;;
33104;SDS011;19476;51.448;6.674;2023-06-10T00:06:34;6.00;;;4.30;;
33104;SDS011;19476;51.448;6.674;2023-06-10T00:09:05;6.07;;;4.78;;
33104;SDS011;19476;51.448;6.674;2023-06-10T00:11:35;7.10;;;4.90;;
33104;SDS011;19476;51.448;6.674;2023-06-10T00:14:01;6.97;;;4.30;;
33104;SDS011;19476;51.448;6.674;2023-06-10T00:16:27;7.75;;;4.88;;
33104;SDS011;19476;51.448;6.674;2023-06-10T00:18:53;7.45;;;5.05;;
33104;SDS011;19476;51.448;6.674;2023-06-10T00:21:21;6.07;;;4.45;;
33104;SDS011;19476;51.448;6.674;2023-06-10T00:23:47;5.90;;;4.47;;
33104;SDS011;19476;51.448;6.674;2023-06-10T00:26:13;5.35;;;4.15;;
33104;SDS011;19476;51.448;6.674;2023-06-10T00:28:39;6.85;;;4.95;;
33104;SDS011;19476;51.448;6.674;2023-06-10T00:31:05;6.20;;;4.60;;
33104;SDS011;19476;51.448;6.674;2023-06-10T00:33:30;6.28;;;5.00;;
33104;SDS011;19476;51.448;6.674;2023-06-10T00:35:56;6.30;;;4.50;;
33104;SDS011;19476;51.448;6.674;2023-06-10T00:38:22;6.38;;;4.28;;
33104;SDS011;19476;51.448;6.674;2023-06-10T00:40:48;9.20;;;5.20;;
33104;SDS011;19476;51.448;6.674;2023-06-10T00:43:14;6.03;;;4.15;;
33104;SDS011;19476;51.448;6.674;2023-06-10T00:45:40;6.95;;;4.63;;
33104;SDS011;19476;51.448;6.674;2023-06-10T00:48:06;5.18;;;4.13;;
33104;SDS011;19476;51.448;6.674;2023-06-10T00:50:33;5.75;;;4.65;;
33104;SDS011;19476;51.448;6.674;2023-06-10T00:52:59;6.78;;;4.60;;
33104;SDS011;19476;51.448;6.674;2023-06-10T00:55:25;5.80;;;4.15;;
33104;SDS011;19476;51.448;6.674;2023-06-10T00:57:52;6.10;;;4.30;;
33104;SDS011;19476;51.448;6.674;2023-06-10T01:00:19;5.53;;;4.30;;
33104;SDS011;19476;51.448;6.674;2023-06-10T01:02:45;7.07;;;5.00;;
33104;SDS011;19476;51.448;6.674;2023-06-10T01:05:11;7.50;;;4.88;;
33104;SDS011;19476;51.448;6.674;2023-06-10T01:12:59;6.57;;;4.47;;
33104;SDS011;19476;51.448;6.674;2023-06-10T01:15:32;5.53;;;4.20;;
33104;SDS011;19476;51.448;6.674;2023-06-10T01:18:03;6.50;;;4.63;;
33104;SDS011;19476;51.448;6.674;2023-06-10T01:20:34;7.28;;;4.47;;
33104;SDS011;19476;51.448;6.674;2023-06-10T01:23:02;5.88;;;4.10;;
33104;SDS011;19476;51.448;6.674;2023-06-10T01:25:28;6.13;;;4.35;;
33104;SDS011;19476;51.448;6.674;2023-06-10T01:28:10;6.07;;;4.18;;
33104;SDS011;19476;51.448;6.674;2023-06-10T01:33:29;8.70;;;4.45;;
33104;SDS011;19476;51.448;6.674;2023-06-10T01:35:59;6.88;;;4.93;;
33104;SDS011;19476;51.448;6.674;2023-06-10T01:38:26;10.40;;;4.85;;
33104;SDS011;19476;51.448;6.674;2023-06-10T01:40:55;7.40;;;4.30;;
33104;SDS011;19476;51.448;6.674;2023-06-10T01:43:22;6.28;;;4.72;;
33104;SDS011;19476;51.448;6.674;2023-06-10T01:45:48;5.60;;;4.28;;
33104;SDS011;19476;51.448;6.674;2023-06-10T01:48:14;7.10;;;4.70;;
33104;SDS011;19476;51.448;6.674;2023-06-10T01:50:40;6.38;;;4.70;;
33104;SDS011;19476;51.448;6.674;2023-06-10T01:53:06;7.50;;;5.13;;
33104;SDS011;19476;51.448;6.674;2023-06-10T01:55:32;6.63;;;5.00;;
33104;SDS011;19476;51.448;6.674;2023-06-10T01:57:57;7.68;;;4.72;;
33104;SDS011;19476;51.448;6.674;2023-06-10T02:00:23;6.60;;;5.18;;
33104;SDS011;19476;51.448;6.674;2023-06-10T02:02:48;7.15;;;4.53;;
33104;SDS011;19476;51.448;6.674;2023-06-10T02:05:15;7.15;;;5.03;;
33104;SDS011;19476;51.448;6.674;2023-06-10T02:07:41;8.50;;;4.90;;
33104;SDS011;19476;51.448;6.674;2023-06-10T02:10:06;5.65;;;4.43;;
33104;SDS011;19476;51.448;6.674;2023-06-10T02:12:33;6.57;;;4.78;;
33104;SDS011;19476;51.448;6.674;2023-06-10T02:14:59;6.38;;;4.72;;
33104;SDS011;19476;51.448;6.674;2023-06-10T02:17:24;6.95;;;5.15;;
33104;SDS011;19476;51.448;6.674;2023-06-10T02:19:51;6.13;;;4.57;;
33104;SDS011;19476;51.448;6.674;2023-06-10T02:22:20;7.38;;;4.68;;
33104;SDS011;19476;51.448;6.674;2023-06-10T02:24:47;7.95;;;5.15;;
33104;SDS011;19476;51.448;6.674;2023-06-10T02:27:12;9.00;;;5.55;;
33104;SDS011;19476;51.448;6.674;2023-06-10T02:29:38;7.82;;;5.97;;
33104;SDS011;19476;51.448;6.674;2023-06-10T02:32:04;8.32;;;5.78;;
33104;SDS011;19476;51.448;6.674;2023-06-10T02:34:30;9.80;;;5.50;;
33104;SDS011;19476;51.448;6.674;2023-06-10T02:36:56;8.73;;;5.80;;
33104;SDS011;19476;51.448;6.674;2023-06-10T02:39:22;8.23;;;5.78;;
33104;SDS011;19476;51.448;6.674;2023-06-10T02:41:47;8.70;;;6.28;;
33104;SDS011;19476;51.448;6.674;2023-06-10T02:44:13;10.45;;;6.22;;
33104;SDS011;19476;51.448;6.674;2023-06-10T02:46:39;8.48;;;5.95;;
33104;SDS011;19476;51.448;6.674;2023-06-10T02:49:04;8.68;;;5.85;;
33104;SDS011;19476;51.448;6.674;2023-06-10T02:51:30;9.20;;;6.25;;
33104;SDS011;19476;51.448;6.674;2023-06-10T02:53:56;9.90;;;6.35;;
33104;SDS011;19476;51.448;6.674;2023-06-10T02:56:22;9.95;;;6.32;;
33104;SDS011;19476;51.448;6.674;2023-06-10T02:58:47;8.20;;;5.80;;
33104;SDS011;19476;51.448;6.674;2023-06-10T03:01:14;8.60;;;6.28;;
33104;SDS011;19476;51.448;6.674;2023-06-10T03:03:40;9.40;;;6.45;;
33104;SDS011;19476;51.448;6.674;2023-06-10T03:06:08;8.93;;;6.32;;
33104;SDS011;19476;51.448;6.674;2023-06-10T03:08:37;9.07;;;6.00;;
33104;SDS011;19476;51.448;6.674;2023-06-10T03:11:04;7.88;;;6.18;;
33104;SDS011;19476;51.448;6.674;2023-06-10T03:13:30;8.32;;;5.97;;
33104;SDS011;19476;51.448;6.674;2023-06-10T03:15:55;7.80;;;5.63;;
33104;SDS011;19476;51.448;6.674;2023-06-10T03:18:22;8.23;;;6.65;;
33104;SDS011;19476;51.448;6.674;2023-06-10T03:20:51;10.35;;;6.28;;
33104;SDS011;19476;51.448;6.674;2023-06-10T03:23:17;9.77;;;6.97;;
33104;SDS011;19476;51.448;6.674;2023-06-10T03:25:43;10.65;;;7.03;;
33104;SDS011;19476;51.448;6.674;2023-06-10T03:28:10;8.77;;;6.90;;
33104;SDS011;19476;51.448;6.674;2023-06-10T03:30:36;7.88;;;5.40;;
33104;SDS011;19476;51.448;6.674;2023-06-10T03:33:01;10.25;;;6.40;;
33104;SDS011;19476;51.448;6.674;2023-06-10T03:35:27;7.97;;;5.82;;
33104;SDS011;19476;51.448;6.674;2023-06-10T03:37:53;7.68;;;5.80;;
33104;SDS011;19476;51.448;6.674;2023-06-10T03:40:19;8.00;;;6.30;;
33104;SDS011;19476;51.448;6.674;2023-06-10T03:42:44;9.57;;;5.90;;
33104;SDS011;19476;51.448;6.674;2023-06-10T03:45:10;8.38;;;6.32;;
33104;SDS011;19476;51.448;6.674;2023-06-10T03:47:37;8.18;;;6.30;;
33104;SDS011;19476;51.448;6.674;2023-06-10T03:50:03;7.78;;;5.82;;
33104;SDS011;19476;51.448;6.674;2023-06-10T03:52:29;8.85;;;6.03;;
33104;SDS011;19476;51.448;6.674;2023-06-10T03:54:55;9.48;;;5.88;;
33104;SDS011;19476;51.448;6.674;2023-06-10T03:57:21;6.45;;;5.22;;
33104;SDS011;19476;51.448;6.674;2023-06-10T03:59:47;9.07;;;5.78;;
33104;SDS011;19476;51.448;6.674;2023-06-10T04:02:13;9.98;;;6.63;;
33104;SDS011;19476;51.448;6.674;2023-06-10T04:04:38;7.88;;;5.72;;
33104;SDS011;19476;51.448;6.674;2023-06-10T04:07:05;8.27;;;5.95;;
33104;SDS011;19476;51.448;6.674;2023-06-10T04:09:31;7.75;;;6.07;;
33104;SDS011;19476;51.448;6.674;2023-06-10T04:11:57;8.65;;;6.43;;
33104;SDS011;19476;51.448;6.674;2023-06-10T04:14:23;9.15;;;6.10;;
33104;SDS011;19476;51.448;6.674;2023-06-10T04:16:49;9.15;;;6.20;;
33104;SDS011;19476;51.448;6.674;2023-06-10T04:19:15;9.18;;;5.90;;
33104;SDS011;19476;51.448;6.674;2023-06-10T04:21:41;7.90;;;5.55;;
33104;SDS011;19476;51.448;6.674;2023-06-10T04:24:07;8.88;;;6.03;;
33104;SDS011;19476;51.448;6.674;2023-06-10T04:26:34;8.77;;;6.18;;
33104;SDS011;19476;51.448;6.674;2023-06-10T04:29:00;8.02;;;6.10;;
33104;SDS011;19476;51.448;6.674;2023-06-10T04:31:26;6.80;;;5.38;;
33104;SDS011;19476;51.448;6.674;2023-06-10T04:33:53;7.97;;;5.97;;
33104;SDS011;19476;51.448;6.674;2023-06-10T04:36:19;9.45;;;6.25;;
33104;SDS011;19476;51.448;6.674;2023-06-10T04:38:45;8.73;;;5.63;;
33104;SDS011;19476;51.448;6.674;2023-06-10T04:41:11;7.82;;;6.20;;
33104;SDS011;19476;51.448;6.674;2023-06-10T04:43:38;8.90;;;6.05;;
33104;SDS011;19476;51.448;6.674;2023-06-10T04:46:04;8.90;;;6.38;;
33104;SDS011;19476;51.448;6.674;2023-06-10T04:48:29;8.57;;;5.53;;
33104;SDS011;19476;51.448;6.674;2023-06-10T04:50:55;9.13;;;5.78;;
33104;SDS011;19476;51.448;6.674;2023-06-10T04:53:22;7.93;;;5.78;;
33104;SDS011;19476;51.448;6.674;2023-06-10T04:55:48;7.93;;;5.82;;
33104;SDS011;19476;51.448;6.674;2023-06-10T04:58:14;7.70;;;5.78;;
33104;SDS011;19476;51.448;6.674;2023-06-10T05:00:40;8.07;;;5.80;;
33104;SDS011;19476;51.448;6.674;2023-06-10T05:03:07;9.52;;;5.90;;
33104;SDS011;19476;51.448;6.674;2023-06-10T05:05:32;8.93;;;5.95;;
33104;SDS011;19476;51.448;6.674;2023-06-10T05:07:59;6.50;;;4.65;;
33104;SDS011;19476;51.448;6.674;2023-06-10T05:10:24;8.05;;;5.32;;
33104;SDS011;19476;51.448;6.674;2023-06-10T05:12:51;7.68;;;5.32;;
33104;SDS011;19476;51.448;6.674;2023-06-10T05:15:16;10.55;;;5.25;;
33104;SDS011;19476;51.448;6.674;2023-06-10T05:17:42;7.18;;;5.13;;
33104;SDS011;19476;51.448;6.674;2023-06-10T05:20:08;8.20;;;5.80;;
33104;SDS011;19476;51.448;6.674;2023-06-10T05:22:34;6.78;;;4.65;;
33104;SDS011;19476;51.448;6.674;2023-06-10T05:25:00;7.53;;;4.75;;
33104;SDS011;19476;51.448;6.674;2023-06-10T05:27:26;7.22;;;4.95;;
33104;SDS011;19476;51.448;6.674;2023-06-10T05:29:52;7.07;;;5.00;;
33104;SDS011;19476;51.448;6.674;2023-06-10T05:32:18;7.40;;;5.05;;
33104;SDS011;19476;51.448;6.674;2023-06-10T05:34:44;6.63;;;4.93;;
33104;SDS011;19476;51.448;6.674;2023-06-10T05:37:10;12.35;;;5.65;;
33104;SDS011;19476;51.448;6.674;2023-06-10T05:39:36;7.15;;;5.18;;
33104;SDS011;19476;51.448;6.674;2023-06-10T05:42:08;7.40;;;4.63;;
33104;SDS011;19476;51.448;6.674;2023-06-10T05:44:34;7.03;;;4.80;;
33104;SDS011;19476;51.448;6.674;2023-06-10T05:47:00;8.18;;;4.95;;
33104;SDS011;19476;51.448;6.674;2023-06-10T05:49:25;6.93;;;4.78;;
33104;SDS011;19476;51.448;6.674;2023-06-10T05:51:51;6.35;;;4.32;;
33104;SDS011;19476;51.448;6.674;2023-06-10T05:54:18;8.63;;;4.57;;
33104;SDS011;19476;51.448;6.674;2023-06-10T05:56:44;7.50;;;4.88;;
33104;SDS011;19476;51.448;6.674;2023-06-10T05:59:09;8.63;;;4.65;;
33104;SDS011;19476;51.448;6.674;2023-06-10T06:01:35;7.80;;;4.80;;
33104;SDS011;19476;51.448;6.674;2023-06-10T06:04:01;5.82;;;4.45;;
33104;SDS011;19476;51.448;6.674;2023-06-10T06:06:27;5.88;;;4.05;;
33104;SDS011;19476;51.448;6.674;2023-06-10T06:08:53;6.93;;;4.43;;
33104;SDS011;19476;51.448;6.674;2023-06-10T06:11:18;5.95;;;4.18;;
33104;SDS011;19476;51.448;6.674;2023-06-10T06:13:44;7.18;;;5.22;;
33104;SDS011;19476;51.448;6.674;2023-06-10T06:16:10;6.32;;;3.97;;
33104;SDS011;19476;51.448;6.674;2023-06-10T06:18:36;7.32;;;3.95;;
33104;SDS011;19476;51.448;6.674;2023-06-10T06:21:02;5.65;;;4.00;;
33104;SDS011;19476;51.448;6.674;2023-06-10T06:23:28;6.43;;;4.10;;
33104;SDS011;19476;51.448;6.674;2023-06-10T06:25:53;6.00;;;4.35;;
33104;SDS011;19476;51.448;6.674;2023-06-10T06:28:19;9.25;;;4.47;;
33104;SDS011;19476;51.448;6.674;2023-06-10T06:30:46;6.68;;;4.30;;
33104;SDS011;19476;51.448;6.674;2023-06-10T06:33:12;6.03;;;3.97;;
33104;SDS011;19476;51.448;6.674;2023-06-10T07:06:30;7.88;;;5.25;;
33104;SDS011;19476;51.448;6.674;2023-06-10T07:08:56;6.55;;;4.40;;
33104;SDS011;19476;51.448;6.674;2023-06-10T07:11:22;8.52;;;3.92;;
33104;SDS011;19476;51.448;6.674;2023-06-10T07:13:48;5.47;;;4.00;;
33104;SDS011;19476;51.448;6.674;2023-06-10T07:16:14;5.53;;;3.95;;
33104;SDS011;19476;51.448;6.674;2023-06-10T07:18:40;6.47;;;3.47;;
33104;SDS011;19476;51.448;6.674;2023-06-10T07:21:06;5.80;;;3.65;;
33104;SDS011;19476;51.448;6.674;2023-06-10T07:23:31;5.55;;;3.95;;
33104;SDS011;19476;51.448;6.674;2023-06-10T07:25:57;6.00;;;4.32;;
33104;SDS011;19476;51.448;6.674;2023-06-10T07:28:23;7.18;;;4.30;;
33104;SDS011;19476;51.448;6.674;2023-06-10T07:30:49;5.43;;;3.83;;
33104;SDS011;19476;51.448;6.674;2023-06-10T07:33:15;7.90;;;4.30;;
33104;SDS011;19476;51.448;6.674;2023-06-10T07:35:41;6.60;;;3.83;;
33104;SDS011;19476;51.448;6.674;2023-06-10T07:38:08;7.57;;;4.88;;
33104;SDS011;19476;51.448;6.674;2023-06-10T07:40:33;6.22;;;3.90;;
33104;SDS011;19476;51.448;6.674;2023-06-10T07:42:59;7.63;;;4.00;;
33104;SDS011;19476;51.448;6.674;2023-06-10T07:45:25;6.07;;;3.85;;
33104;SDS011;19476;51.448;6.674;2023-06-10T07:47:51;7.32;;;3.95;;
33104;SDS011;19476;51.448;6.674;2023-06-10T07:50:17;5.72;;;3.90;;
33104;SDS011;19476;51.448;6.674;2023-06-10T07:52:43;6.40;;;4.18;;
33104;SDS011;19476;51.448;6.674;2023-06-10T07:55:09;7.93;;;3.90;;
33104;SDS011;19476;51.448;6.674;2023-06-10T07:57:34;8.85;;;3.90;;
33104;SDS011;19476;51.448;6.674;2023-06-10T08:00:02;5.30;;;3.70;;
33104;SDS011;19476;51.448;6.674;2023-06-10T08:02:29;5.82;;;3.55;;
33104;SDS011;19476;51.448;6.674;2023-06-10T08:04:55;5.95;;;4.40;;
33104;SDS011;19476;51.448;6.674;2023-06-10T08:07:21;6.78;;;4.32;;
33104;SDS011;19476;51.448;6.674;2023-06-10T08:09:47;5.22;;;3.45;;
33104;SDS011;19476;51.448;6.674;2023-06-10T08:12:13;6.65;;;4.00;;
33104;SDS011;19476;51.448;6.674;2023-06-10T08:14:39;5.55;;;3.85;;
33104;SDS011;19476;51.448;6.674;2023-06-10T08:17:04;5.95;;;3.72;;
33104;SDS011;19476;51.448;6.674;2023-06-10T08:19:31;5.13;;;3.63;;
33104;SDS011;19476;51.448;6.674;2023-06-10T08:21:57;5.70;;;3.83;;
33104;SDS011;19476;51.448;6.674;2023-06-10T08:24:23;4.70;;;3.53;;
33104;SDS011;19476;51.448;6.674;2023-06-10T08:26:49;5.53;;;4.03;;
33104;SDS011;19476;51.448;6.674;2023-06-10T08:29:15;5.00;;;3.22;;
33104;SDS011;19476;51.448;6.674;2023-06-10T08:31:41;6.60;;;3.90;;
33104;SDS011;19476;51.448;6.674;2023-06-10T08:34:09;6.80;;;4.03;;
33104;SDS011;19476;51.448;6.674;2023-06-10T08:36:36;6.07;;;3.90;;
33104;SDS011;19476;51.448;6.674;2023-06-10T08:39:02;7.05;;;3.95;;
33104;SDS011;19476;51.448;6.674;2023-06-10T08:41:28;7.72;;;3.95;;
33104;SDS011;19476;51.448;6.674;2023-06-10T08:44:10;6.68;;;4.32;;
33104;SDS011;19476;51.448;6.674;2023-06-10T08:46:44;8.43;;;4.70;;
33104;SDS011;19476;51.448;6.674;2023-06-10T08:49:10;6.05;;;4.00;;
33104;SDS011;19476;51.448;6.674;2023-06-10T08:51:43;6.50;;;3.80;;
33104;SDS011;19476;51.448;6.674;2023-06-10T08:54:15;6.45;;;3.95;;
33104;SDS011;19476;51.448;6.674;2023-06-10T08:56:45;6.88;;;4.00;;
33104;SDS011;19476;51.448;6.674;2023-06-10T08:59:14;5.80;;;4.18;;
33104;SDS011;19476;51.448;6.674;2023-06-10T09:01:42;4.85;;;3.47;;
33104;SDS011;19476;51.448;6.674;2023-06-10T09:04:09;5.57;;;3.80;;
33104;SDS011;19476;51.448;6.674;2023-06-10T09:06:36;6.40;;;4.10;;
33104;SDS011;19476;51.448;6.674;2023-06-10T09:09:04;6.20;;;3.90;;
33104;SDS011;19476;51.448;6.674;2023-06-10T09:11:32;5.97;;;4.07;;
33104;SDS011;19476;51.448;6.674;2023-06-10T09:13:58;5.68;;;4.20;;
33104;SDS011;19476;51.448;6.674;2023-06-10T09:16:24;6.45;;;4.25;;
33104;SDS011;19476;51.448;6.674;2023-06-10T09:18:51;8.55;;;3.80;;
33104;SDS011;19476;51.448;6.674;2023-06-10T09:21:23;9.05;;;4.32;;
33104;SDS011;19476;51.448;6.674;2023-06-10T09:23:49;5.30;;;4.25;;
33104;SDS011;19476;51.448;6.674;2023-06-10T09:26:15;6.32;;;4.13;;
33104;SDS011;19476;51.448;6.674;2023-06-10T09:28:43;5.80;;;4.25;;
33104;SDS011;19476;51.448;6.674;2023-06-10T09:31:09;5.85;;;4.10;;
33104;SDS011;19476;51.448;6.674;2023-06-10T09:33:37;5.75;;;4.43;;
33104;SDS011;19476;51.448;6.674;2023-06-10T09:36:04;7.25;;;4.65;;
33104;SDS011;19476;51.448;6.674;2023-06-10T09:38:31;6.70;;;4.35;;
33104;SDS011;19476;51.448;6.674;2023-06-10T09:40:58;8.52;;;4.70;;
33104;SDS011;19476;51.448;6.674;2023-06-10T09:43:38;7.10;;;4.75;;
33104;SDS011;19476;51.448;6.674;2023-06-10T09:48:34;9.55;;;4.32;;
33104;SDS011;19476;51.448;6.674;2023-06-10T09:51:08;6.20;;;4.68;;
33104;SDS011;19476;51.448;6.674;2023-06-10T09:53:35;7.82;;;4.43;;
33104;SDS011;19476;51.448;6.674;2023-06-10T09:56:01;7.07;;;5.05;;
33104;SDS011;19476;51.448;6.674;2023-06-10T09:58:34;6.75;;;4.95;;
33104;SDS011;19476;51.448;6.674;2023-06-10T10:01:05;12.23;;;4.60;;
33104;SDS011;19476;51.448;6.674;2023-06-10T10:03:33;7.82;;;5.35;;
33104;SDS011;19476;51.448;6.674;2023-06-10T10:05:59;4.97;;;4.47;;
33104;SDS011;19476;51.448;6.674;2023-06-10T10:08:25;6.88;;;4.93;;
33104;SDS011;19476;51.448;6.674;2023-06-10T10:10:52;6.82;;;5.10;;
33104;SDS011;19476;51.448;6.674;2023-06-10T10:13:17;6.53;;;4.75;;
33104;SDS011;19476;51.448;6.674;2023-06-10T10:15:44;6.25;;;4.82;;
33104;SDS011;19476;51.448;6.674;2023-06-10T10:18:11;6.13;;;4.75;;
33104;SDS011;19476;51.448;6.674;2023-06-10T10:20:47;7.38;;;4.85;;
33104;SDS011;19476;51.448;6.674;2023-06-10T10:23:21;7.28;;;5.30;;
33104;SDS011;19476;51.448;6.674;2023-06-10T10:25:52;5.97;;;5.38;;
33104;SDS011;19476;51.448;6.674;2023-06-10T10:28:21;7.63;;;5.60;;
33104;SDS011;19476;51.448;6.674;2023-06-10T10:30:52;6.78;;;5.15;;
33104;SDS011;19476;51.448;6.674;2023-06-10T10:35:59;6.43;;;5.40;;
33104;SDS011;19476;51.448;6.674;2023-06-10T10:38:26;8.25;;;5.85;;
33104;SDS011;19476;51.448;6.674;2023-06-10T10:40:53;6.72;;;5.38;;
33104;SDS011;19476;51.448;6.674;2023-06-10T10:43:24;9.05;;;5.47;;
33104;SDS011;19476;51.448;6.674;2023-06-10T10:45:59;6.80;;;5.40;;
33104;SDS011;19476;51.448;6.674;2023-06-10T10:48:26;8.52;;;5.53;;
33104;SDS011;19476;51.448;6.674;2023-06-10T10:50:58;6.40;;;5.05;;
33104;SDS011;19476;51.448;6.674;2023-06-10T10:53:25;6.82;;;5.53;;
33104;SDS011;19476;51.448;6.674;2023-06-10T10:55:57;5.95;;;5.30;;
33104;SDS011;19476;51.448;6.674;2023-06-10T10:58:33;9.77;;;5.88;;
33104;SDS011;19476;51.448;6.674;2023-06-10T11:01:09;7.85;;;5.70;;
33104;SDS011;19476;51.448;6.674;2023-06-10T11:03:45;7.18;;;5.22;;
33104;SDS011;19476;51.448;6.674;2023-06-10T11:06:16;7.75;;;5.65;;
33104;SDS011;19476;51.448;6.674;2023-06-10T11:11:23;6.63;;;5.40;;
33104;SDS011;19476;51.448;6.674;2023-06-10T11:16:41;7.35;;;5.82;;
33104;SDS011;19476;51.448;6.674;2023-06-10T11:19:08;7.55;;;5.63;;
33104;SDS011;19476;51.448;6.674;2023-06-10T11:22:42;7.00;;;5.72;;
33104;SDS011;19476;51.448;6.674;2023-06-10T11:24:33;6.43;;;5.60;;
33104;SDS011;19476;51.448;6.674;2023-06-10T11:27:14;7.18;;;5.55;;
33104;SDS011;19476;51.448;6.674;2023-06-10T11:32:31;7.03;;;5.53;;
33104;SDS011;19476;51.448;6.674;2023-06-10T11:34:58;6.45;;;5.28;;
33104;SDS011;19476;51.448;6.674;2023-06-10T11:37:25;6.05;;;5.18;;
33104;SDS011;19476;51.448;6.674;2023-06-10T11:39:55;7.20;;;5.20;;
33104;SDS011;19476;51.448;6.674;2023-06-10T11:42:21;6.35;;;5.65;;
33104;SDS011;19476;51.448;6.674;2023-06-10T11:44:52;7.78;;;6.20;;
33104;SDS011;19476;51.448;6.674;2023-06-10T11:47:19;8.10;;;6.55;;
33104;SDS011;19476;51.448;6.674;2023-06-10T11:49:46;8.70;;;6.70;;
33104;SDS011;19476;51.448;6.674;2023-06-10T11:52:27;7.07;;;6.00;;
33104;SDS011;19476;51.448;6.674;2023-06-10T11:55:03;6.05;;;5.45;;
33104;SDS011;19476;51.448;6.674;2023-06-10T11:57:33;7.18;;;5.57;;
33104;SDS011;19476;51.448;6.674;2023-06-10T12:00:06;6.88;;;5.38;;
33104;SDS011;19476;51.448;6.674;2023-06-10T12:02:32;6.43;;;5.47;;
33104;SDS011;19476;51.448;6.674;2023-06-10T12:05:16;8.03;;;5.73;;
33104;SDS011;19476;51.448;6.674;2023-06-10T12:08:05;7.93;;;5.70;;
33104;SDS011;19476;51.448;6.674;2023-06-10T12:10:39;12.25;;;6.45;;
33104;SDS011;19476;51.448;6.674;2023-06-10T12:13:06;6.25;;;5.53;;
33104;SDS011;19476;51.448;6.674;2023-06-10T12:15:35;6.00;;;5.32;;
33104;SDS011;19476;51.448;6.674;2023-06-10T12:18:01;7.72;;;6.07;;
33104;SDS011;19476;51.448;6.674;2023-06-10T12:20:32;6.35;;;5.70;;
33104;SDS011;19476;51.448;6.674;2023-06-10T12:23:08;6.30;;;5.55;;
33104;SDS011;19476;51.448;6.674;2023-06-10T12:25:34;9.25;;;5.43;;
33104;SDS011;19476;51.448;6.674;2023-06-10T12:28:02;6.40;;;5.72;;
33104;SDS011;19476;51.448;6.674;2023-06-10T12:30:28;7.38;;;5.57;;
33104;SDS011;19476;51.448;6.674;2023-06-10T12:32:54;9.95;;;6.40;;
33104;SDS011;19476;51.448;6.674;2023-06-10T12:35:29;6.57;;;5.80;;
33104;SDS011;19476;51.448;6.674;2023-06-10T12:42:58;7.72;;;6.30;;
33104;SDS011;19476;51.448;6.674;2023-06-10T12:45:28;8.23;;;6.03;;
33104;SDS011;19476;51.448;6.674;2023-06-10T12:48:05;6.90;;;5.93;;
33104;SDS011;19476;51.448;6.674;2023-06-10T12:50:32;6.78;;;6.07;;
33104;SDS011;19476;51.448;6.674;2023-06-10T12:53:01;6.80;;;5.90;;
33104;SDS011;19476;51.448;6.674;2023-06-10T12:55:27;7.07;;;6.07;;
33104;SDS011;19476;51.448;6.674;2023-06-10T12:57:53;7.82;;;6.10;;
33104;SDS011;19476;51.448;6.674;2023-06-10T13:00:21;7.22;;;5.95;;
33104;SDS011;19476;51.448;6.674;2023-06-10T13:02:50;6.40;;;5.80;;
33104;SDS011;19476;51.448;6.674;2023-06-10T13:05:17;9.05;;;6.03;;
33104;SDS011;19476;51.448;6.674;2023-06-10T13:07:46;7.10;;;6.40;;
33104;SDS011;19476;51.448;6.674;2023-06-10T13:12:40;7.13;;;6.43;;
33104;SDS011;19476;51.448;6.674;2023-06-10T13:15:06;8.35;;;6.40;;
33104;SDS011;19476;51.448;6.674;2023-06-10T13:17:33;6.95;;;6.20;;
33104;SDS011;19476;51.448;6.674;2023-06-10T13:20:02;7.15;;;5.95;;
33104;SDS011;19476;51.448;6.674;2023-06-10T13:22:31;7.45;;;6.15;;
33104;SDS011;19476;51.448;6.674;2023-06-10T13:25:01;7.28;;;6.57;;
33104;SDS011;19476;51.448;6.674;2023-06-10T13:27:28;8.02;;;6.35;;
33104;SDS011;19476;51.448;6.674;2023-06-10T13:29:54;7.05;;;6.35;;
33104;SDS011;19476;51.448;6.674;2023-06-10T13:32:20;7.28;;;6.40;;
33104;SDS011;19476;51.448;6.674;2023-06-10T13:34:46;7.30;;;6.40;;
33104;SDS011;19476;51.448;6.674;2023-06-10T13:37:12;8.93;;;7.20;;
33104;SDS011;19476;51.448;6.674;2023-06-10T13:39:38;8.63;;;6.70;;
33104;SDS011;19476;51.448;6.674;2023-06-10T13:42:04;6.97;;;6.28;;
33104;SDS011;19476;51.448;6.674;2023-06-10T13:44:32;7.78;;;6.43;;
33104;SDS011;19476;51.448;6.674;2023-06-10T13:47:01;7.53;;;6.22;;
33104;SDS011;19476;51.448;6.674;2023-06-10T13:49:28;6.65;;;5.93;;
33104;SDS011;19476;51.448;6.674;2023-06-10T13:51:57;7.30;;;6.32;;
33104;SDS011;19476;51.448;6.674;2023-06-10T13:54:26;9.43;;;7.13;;
33104;SDS011;19476;51.448;6.674;2023-06-10T13:56:52;8.15;;;7.35;;
33104;SDS011;19476;51.448;6.674;2023-06-10T13:59:21;8.55;;;6.72;;
33104;SDS011;19476;51.448;6.674;2023-06-10T14:04:13;7.20;;;6.22;;
33104;SDS011;19476;51.448;6.674;2023-06-10T14:06:39;7.40;;;6.07;;
33104;SDS011;19476;51.448;6.674;2023-06-10T14:09:05;7.15;;;5.88;;
33104;SDS011;19476;51.448;6.674;2023-06-10T14:11:30;6.70;;;6.00;;
33104;SDS011;19476;51.448;6.674;2023-06-10T14:13:57;7.47;;;6.78;;
33104;SDS011;19476;51.448;6.674;2023-06-10T14:16:26;7.35;;;6.65;;
33104;SDS011;19476;51.448;6.674;2023-06-10T14:18:53;7.30;;;6.60;;
33104;SDS011;19476;51.448;6.674;2023-06-10T14:21:20;8.18;;;6.65;;
33104;SDS011;19476;51.448;6.674;2023-06-10T14:23:46;7.60;;;6.80;;
33104;SDS011;19476;51.448;6.674;2023-06-10T14:26:14;10.93;;;7.13;;
33104;SDS011;19476;51.448;6.674;2023-06-10T14:28:40;7.78;;;6.75;;
33104;SDS011;19476;51.448;6.674;2023-06-10T14:31:06;7.22;;;6.38;;
33104;SDS011;19476;51.448;6.674;2023-06-10T14:33:32;9.55;;;6.60;;
33104;SDS011;19476;51.448;6.674;2023-06-10T14:35:59;7.47;;;6.78;;
33104;SDS011;19476;51.448;6.674;2023-06-10T14:38:25;7.65;;;6.80;;
33104;SDS011;19476;51.448;6.674;2023-06-10T14:40:51;6.95;;;6.25;;
33104;SDS011;19476;51.448;6.674;2023-06-10T14:43:17;6.70;;;6.10;;
33104;SDS011;19476;51.448;6.674;2023-06-10T14:45:43;6.97;;;6.20;;
33104;SDS011;19476;51.448;6.674;2023-06-10T14:48:09;6.25;;;5.53;;
33104;SDS011;19476;51.448;6.674;2023-06-10T14:50:38;7.65;;;6.68;;
33104;SDS011;19476;51.448;6.674;2023-06-10T14:53:06;7.38;;;6.63;;
33104;SDS011;19476;51.448;6.674;2023-06-10T14:55:32;6.93;;;6.22;;
33104;SDS011;19476;51.448;6.674;2023-06-10T14:57:57;6.32;;;5.72;;
33104;SDS011;19476;51.448;6.674;2023-06-10T15:00:23;8.30;;;6.97;;
33104;SDS011;19476;51.448;6.674;2023-06-10T15:02:50;7.10;;;6.40;;
33104;SDS011;19476;51.448;6.674;2023-06-10T15:05:17;7.38;;;6.68;;
33104;SDS011;19476;51.448;6.674;2023-06-10T15:07:44;6.97;;;6.28;;
33104;SDS011;19476;51.448;6.674;2023-06-10T15:10:10;6.95;;;6.25;;
33104;SDS011;19476;51.448;6.674;2023-06-10T15:12:36;7.25;;;6.32;;
33104;SDS011;19476;51.448;6.674;2023-06-10T15:15:02;7.45;;;6.75;;
33104;SDS011;19476;51.448;6.674;2023-06-10T15:17:28;8.45;;;7.20;;
33104;SDS011;19476;51.448;6.674;2023-06-10T15:19:54;7.75;;;6.95;;
33104;SDS011;19476;51.448;6.674;2023-06-10T15:22:20;7.07;;;6.38;;
33104;SDS011;19476;51.448;6.674;2023-06-10T15:24:46;7.97;;;7.18;;
33104;SDS011;19476;51.448;6.674;2023-06-10T15:27:12;6.80;;;6.00;;
33104;SDS011;19476;51.448;6.674;2023-06-10T15:29:39;11.10;;;6.85;;
33104;SDS011;19476;51.448;6.674;2023-06-10T15:32:05;9.95;;;6.38;;
33104;SDS011;19476;51.448;6.674;2023-06-10T15:34:31;9.93;;;6.15;;
33104;SDS011;19476;51.448;6.674;2023-06-10T15:36:57;7.47;;;6.75;;
33104;SDS011;19476;51.448;6.674;2023-06-10T15:39:23;7.28;;;6.30;;
33104;SDS011;19476;51.448;6.674;2023-06-10T15:41:50;6.78;;;6.03;;
33104;SDS011;19476;51.448;6.674;2023-06-10T15:44:16;6.45;;;5.70;;
33104;SDS011;19476;51.448;6.674;2023-06-10T15:46:41;6.35;;;5.70;;
33104;SDS011;19476;51.448;6.674;2023-06-10T15:49:08;7.82;;;6.82;;
33104;SDS011;19476;51.448;6.674;2023-06-10T15:51:34;11.35;;;6.85;;